Time;durP1;ratioP1;P1;durP2;ratioP2;P2;SDS_P1;SDS_P2;PMS_P1;PMS_P2;Temp;Humidity;BMP_temperature;BMP_pressure;BME280_temperature;BME280_humidity;BME280_pressure;Samples;Min_cycle;Max_cycle;Signal;HPM_P1;HPM_P2
2023/02/12 00:00:59;;;;;;;88.47;38.15;;;;;;;;;;4981928;28;20121;-60
2023/02/12 00:03:24;;;;;;;86.22;36.85;;;;;;;;;;4981139;28;20045;-60
2023/02/12 00:05:49;;;;;;;77.57;35.45;;;;;;;;;;4982491;28;20069;-60
2023/02/12 00:08:15;;;;;;;92.35;38.40;;;;;;;;;;4985005;28;20395;-59
2023/02/12 00:10:41;;;;;;;79.43;36.78;;;;;;;;;;4985903;28;20034;-59
2023/02/12 00:13:07;;;;;;;80.57;36.23;;;;;;;;;;4980174;28;20030;-59
2023/02/12 00:15:33;;;;;;;88.60;36.75;;;;;;;;;;4983639;28;20264;-59
2023/02/12 00:17:58;;;;;;;88.38;37.53;;;;;;;;;;4983339;28;20114;-59
2023/02/12 00:20:24;;;;;;;91.93;38.60;;;;;;;;;;4980426;28;20117;-60
2023/02/12 00:22:49;;;;;;;79.82;34.13;;;;;;;;;;4981627;28;20526;-59
2023/02/12 00:25:15;;;;;;;77.28;36.42;;;;;;;;;;4967846;28;20439;-59
2023/02/12 00:27:41;;;;;;;80.10;36.13;;;;;;;;;;4982302;28;20062;-59
2023/02/12 00:30:06;;;;;;;71.03;34.08;;;;;;;;;;4982169;28;20105;-59
2023/02/12 00:32:31;;;;;;;85.28;36.83;;;;;;;;;;4981558;28;20065;-60
2023/02/12 00:34:57;;;;;;;78.32;34.30;;;;;;;;;;4991077;28;20116;-59
2023/02/12 00:37:22;;;;;;;75.00;34.55;;;;;;;;;;4998264;28;20034;-59
2023/02/12 00:39:47;;;;;;;88.70;37.75;;;;;;;;;;4988593;28;20041;-60
2023/02/12 00:42:13;;;;;;;82.45;36.22;;;;;;;;;;5002718;28;20038;-59
2023/02/12 00:44:38;;;;;;;95.00;38.58;;;;;;;;;;4984929;28;20529;-61
2023/02/12 00:47:04;;;;;;;86.53;37.72;;;;;;;;;;4984018;28;20136;-59
2023/02/12 00:49:33;;;;;;;81.78;36.05;;;;;;;;;;4981489;28;20030;-60
2023/02/12 00:51:58;;;;;;;81.35;36.40;;;;;;;;;;4988401;28;20037;-59
2023/02/12 00:54:24;;;;;;;74.07;35.05;;;;;;;;;;4988601;28;20030;-59
2023/02/12 00:56:49;;;;;;;95.50;39.97;;;;;;;;;;4984668;28;20030;-60
2023/02/12 00:59:14;;;;;;;83.35;37.35;;;;;;;;;;4985785;28;20232;-61
2023/02/12 01:01:40;;;;;;;81.00;37.55;;;;;;;;;;4999568;28;20042;-60
2023/02/12 01:04:05;;;;;;;82.18;37.97;;;;;;;;;;4984652;28;20081;-60
2023/02/12 01:06:30;;;;;;;95.22;40.90;;;;;;;;;;4985930;28;20034;-60
2023/02/12 01:08:56;;;;;;;91.63;38.05;;;;;;;;;;4985054;28;20741;-60
2023/02/12 01:11:21;;;;;;;87.10;38.35;;;;;;;;;;4986283;28;20050;-60
2023/02/12 01:13:47;;;;;;;83.60;36.42;;;;;;;;;;4984916;28;20053;-62
2023/02/12 01:16:14;;;;;;;82.32;36.80;;;;;;;;;;4986747;28;20038;-59
2023/02/12 01:18:39;;;;;;;87.70;37.10;;;;;;;;;;5000030;28;20034;-62
2023/02/12 01:21:09;;;;;;;80.93;37.00;;;;;;;;;;4995055;28;20034;-59
2023/02/12 01:23:34;;;;;;;81.10;35.53;;;;;;;;;;4983892;28;20450;-60
2023/02/12 01:26:00;;;;;;;93.97;40.60;;;;;;;;;;4983754;28;20026;-60
2023/02/12 01:28:25;;;;;;;80.05;36.72;;;;;;;;;;4985061;28;20045;-60
2023/02/12 01:30:50;;;;;;;87.03;37.38;;;;;;;;;;4984538;28;20467;-60
2023/02/12 01:33:16;;;;;;;86.85;39.13;;;;;;;;;;4985060;28;20034;-60
2023/02/12 01:35:41;;;;;;;80.32;36.25;;;;;;;;;;4986255;28;20100;-60
2023/02/12 01:38:06;;;;;;;92.45;38.65;;;;;;;;;;4983851;28;20023;-61
2023/02/12 01:40:32;;;;;;;80.32;37.83;;;;;;;;;;4987647;28;20844;-60
2023/02/12 01:42:59;;;;;;;81.22;38.90;;;;;;;;;;4983351;28;20042;-59
2023/02/12 01:45:24;;;;;;;92.50;39.05;;;;;;;;;;4985359;28;20027;-59
2023/02/12 01:47:49;;;;;;;94.13;41.72;;;;;;;;;;4984519;28;20030;-62
2023/02/12 01:50:17;;;;;;;82.50;37.03;;;;;;;;;;4995811;28;20120;-62
2023/02/12 01:52:42;;;;;;;;;;;;;;;;;;4996119;28;20038;-59
2023/02/12 01:55:09;;;;;;;78.83;33.03;;;;;;;;;;4985161;28;19920;-59
2023/02/12 01:57:35;;;;;;;81.03;33.30;;;;;;;;;;5000805;28;20173;-61
2023/02/12 02:00:02;;;;;;;84.22;39.88;;;;;;;;;;4992066;28;20372;-60
2023/02/12 02:02:28;;;;;;;;;;;;;;;;;;4984817;28;20521;-60
2023/02/12 02:04:56;;;;;;;86.73;36.57;;;;;;;;;;4984238;28;19928;-60
2023/02/12 02:07:21;;;;;;;85.88;37.00;;;;;;;;;;5000962;28;20290;-59
2023/02/12 02:09:46;;;;;;;76.15;33.67;;;;;;;;;;4986679;28;20026;-62
2023/02/12 02:14:57;;;;;;;76.15;35.25;;;;;;;;;;4988990;28;20061;-61
2023/02/12 02:17:35;;;;;;;71.85;34.10;;;;;;;;;;5001173;28;20034;-62
2023/02/12 02:20:09;;;;;;;68.18;30.50;;;;;;;;;;4981170;28;20026;-60
2023/02/12 02:22:35;;;;;;;61.60;29.92;;;;;;;;;;4985112;28;20129;-60
2023/02/12 02:25:12;;;;;;;68.35;31.70;;;;;;;;;;4983966;28;20143;-60
2023/02/12 02:27:37;;;;;;;;;;;;;;;;;;4981419;28;20030;-60
2023/02/12 02:30:02;;;;;;;72.33;32.30;;;;;;;;;;4982037;28;19913;-59
2023/02/12 02:32:36;;;;;;;69.28;33.17;;;;;;;;;;4983497;28;20050;-60
2023/02/12 02:35:24;;;;;;;77.68;33.40;;;;;;;;;;4983860;28;20450;-60
2023/02/12 02:37:49;;;;;;;68.07;30.45;;;;;;;;;;4983840;28;20038;-61
2023/02/12 02:40:18;;;;;;;62.65;31.33;;;;;;;;;;4984151;28;20030;-60
2023/02/12 02:42:51;;;;;;;68.38;32.00;;;;;;;;;;4985000;28;20050;-60
2023/02/12 02:45:23;;;;;;;63.42;30.55;;;;;;;;;;4983227;28;20389;-61
2023/02/12 02:47:54;;;;;;;87.55;37.25;;;;;;;;;;4985019;28;20041;-60
2023/02/12 02:50:21;;;;;;;87.10;37.92;;;;;;;;;;4982491;28;20034;-59
2023/02/12 02:53:00;;;;;;;88.30;37.20;;;;;;;;;;4983204;28;20476;-61
2023/02/12 02:55:27;;;;;;;82.45;36.28;;;;;;;;;;4981192;28;20034;-59
2023/02/12 02:57:55;;;;;;;75.90;35.33;;;;;;;;;;4984816;28;20630;-59
2023/02/12 03:00:24;;;;;;;76.03;35.72;;;;;;;;;;4985317;28;20052;-61
2023/02/12 03:02:53;;;;;;;68.85;33.80;;;;;;;;;;4981625;28;20050;-60
2023/02/12 03:05:19;;;;;;;74.05;35.45;;;;;;;;;;4982958;28;20026;-58
2023/02/12 03:07:51;;;;;;;71.22;33.25;;;;;;;;;;4982866;28;20621;-60
2023/02/12 03:10:19;;;;;;;71.68;34.20;;;;;;;;;;4983795;28;20039;-60
2023/02/12 03:12:51;;;;;;;77.05;32.47;;;;;;;;;;4978253;28;20034;-60
2023/02/12 03:15:20;;;;;;;70.18;32.88;;;;;;;;;;4984145;28;20039;-60
2023/02/12 03:17:46;;;;;;;74.43;34.72;;;;;;;;;;4985023;28;20041;-60
2023/02/12 03:20:12;;;;;;;71.38;31.52;;;;;;;;;;4984255;28;20034;-59
2023/02/12 03:22:42;;;;;;;69.40;30.90;;;;;;;;;;4985645;28;20076;-59
2023/02/12 03:25:08;;;;;;;72.40;33.33;;;;;;;;;;4983733;28;20034;-59
2023/02/12 03:27:37;;;;;;;63.95;30.92;;;;;;;;;;4984953;28;20077;-60
2023/02/12 03:30:03;;;;;;;70.70;30.92;;;;;;;;;;4983705;28;20038;-59
2023/02/12 03:32:37;;;;;;;75.43;30.85;;;;;;;;;;4984832;28;20846;-59
2023/02/12 03:35:05;;;;;;;60.75;30.90;;;;;;;;;;4983417;28;20074;-59
2023/02/12 03:37:33;;;;;;;75.00;33.97;;;;;;;;;;4983322;28;20510;-60
2023/02/12 03:40:02;;;;;;;74.55;34.25;;;;;;;;;;4982222;28;20035;-59
2023/02/12 03:42:33;;;;;;;66.60;33.58;;;;;;;;;;4983255;28;20045;-60
2023/02/12 03:44:58;;;;;;;74.55;33.10;;;;;;;;;;4985330;28;20034;-60
2023/02/12 03:47:35;;;;;;;77.88;33.60;;;;;;;;;;4987726;28;20041;-59
2023/02/12 03:50:17;;;;;;;69.40;31.75;;;;;;;;;;4983481;28;20050;-59
2023/02/12 03:52:43;;;;;;;71.03;30.73;;;;;;;;;;4980371;28;20144;-59
2023/02/12 03:55:09;;;;;;;69.25;32.47;;;;;;;;;;4993327;28;20440;-60
2023/02/12 03:57:39;;;;;;;66.38;30.85;;;;;;;;;;4982452;28;20907;-60
2023/02/12 04:00:06;;;;;;;63.72;29.45;;;;;;;;;;4975888;28;20049;-59
2023/02/12 04:02:40;;;;;;;57.67;28.20;;;;;;;;;;4983987;28;20092;-59
2023/02/12 04:05:05;;;;;;;64.13;29.35;;;;;;;;;;4981646;28;20034;-59
2023/02/12 04:07:31;;;;;;;58.10;28.77;;;;;;;;;;4983074;28;20502;-59
2023/02/12 04:09:56;;;;;;;65.10;29.90;;;;;;;;;;4985575;28;20019;-59
2023/02/12 04:12:40;;;;;;;62.75;28.30;;;;;;;;;;4987803;28;20497;-59
2023/02/12 04:15:11;;;;;;;77.55;34.50;;;;;;;;;;4987612;28;20215;-59
2023/02/12 04:17:48;;;;;;;64.70;29.80;;;;;;;;;;5001530;28;20070;-59
2023/02/12 04:20:26;;;;;;;66.55;33.80;;;;;;;;;;4985444;28;20053;-59
2023/02/12 04:22:51;;;;;;;68.15;32.53;;;;;;;;;;4985735;28;20027;-60
2023/02/12 04:25:29;;;;;;;60.35;29.23;;;;;;;;;;4985835;28;20034;-59
2023/02/12 04:28:23;;;;;;;63.70;30.92;;;;;;;;;;4984989;28;20030;-59
2023/02/12 04:30:59;;;;;;;60.17;27.63;;;;;;;;;;4973301;28;20132;-59
2023/02/12 04:33:27;;;;;;;57.88;28.75;;;;;;;;;;4987585;28;20154;-59
2023/02/12 04:36:00;;;;;;;54.15;28.35;;;;;;;;;;4985322;28;20379;-59
2023/02/12 04:38:29;;;;;;;61.35;28.88;;;;;;;;;;4987413;28;20030;-60
2023/02/12 04:40:55;;;;;;;60.03;28.45;;;;;;;;;;4985804;28;20426;-59
2023/02/12 04:43:27;;;;;;;60.85;28.30;;;;;;;;;;4984980;28;20042;-59
2023/02/12 04:45:53;;;;;;;57.92;27.30;;;;;;;;;;4986371;28;20479;-60
2023/02/12 04:48:19;;;;;;;62.00;29.50;;;;;;;;;;4988921;28;20497;-58
2023/02/12 04:50:45;;;;;;;68.65;29.58;;;;;;;;;;4986533;28;20030;-59
2023/02/12 04:53:10;;;;;;;69.97;31.75;;;;;;;;;;4986478;28;20682;-59
2023/02/12 04:55:36;;;;;;;54.28;27.48;;;;;;;;;;4985382;28;20034;-59
2023/02/12 04:58:01;;;;;;;62.72;29.13;;;;;;;;;;4986105;28;20030;-59
2023/02/12 05:00:26;;;;;;;58.50;28.40;;;;;;;;;;4985988;28;21508;-59
2023/02/12 05:02:52;;;;;;;53.35;28.02;;;;;;;;;;4987359;28;20034;-59
2023/02/12 05:05:17;;;;;;;57.75;27.27;;;;;;;;;;4986210;28;20861;-60
2023/02/12 05:07:42;;;;;;;57.35;27.08;;;;;;;;;;4988305;28;20054;-60
2023/02/12 05:10:08;;;;;;;59.47;27.55;;;;;;;;;;4985186;28;20033;-59
2023/02/12 05:12:33;;;;;;;55.90;27.70;;;;;;;;;;4985038;28;20038;-60
2023/02/12 05:14:58;;;;;;;55.10;27.52;;;;;;;;;;4982181;28;20128;-60
2023/02/12 05:17:24;;;;;;;68.97;31.27;;;;;;;;;;4984422;28;20471;-59
2023/02/12 05:19:49;;;;;;;66.10;30.05;;;;;;;;;;4984754;28;20103;-59
2023/02/12 05:22:14;;;;;;;60.58;28.48;;;;;;;;;;4985076;28;20629;-59
2023/02/12 05:24:40;;;;;;;64.32;28.38;;;;;;;;;;4988033;28;20047;-60
2023/02/12 05:27:07;;;;;;;58.15;28.80;;;;;;;;;;4986282;28;20032;-60
2023/02/12 05:29:32;;;;;;;57.33;28.45;;;;;;;;;;4987141;28;20072;-59
2023/02/12 05:31:57;;;;;;;53.40;26.88;;;;;;;;;;4986236;28;20054;-59
2023/02/12 05:34:22;;;;;;;53.22;26.60;;;;;;;;;;4987540;28;20030;-60
2023/02/12 05:36:48;;;;;;;59.58;30.33;;;;;;;;;;4987148;28;20054;-60
2023/02/12 05:39:13;;;;;;;64.22;31.60;;;;;;;;;;4996730;28;20044;-59
2023/02/12 05:41:38;;;;;;;66.45;30.75;;;;;;;;;;4985929;28;20042;-59
2023/02/12 05:44:04;;;;;;;58.70;30.23;;;;;;;;;;4984856;28;20046;-58
2023/02/12 05:46:30;;;;;;;65.30;29.55;;;;;;;;;;4984737;28;20035;-59
2023/02/12 05:48:55;;;;;;;76.15;34.05;;;;;;;;;;4985209;28;20113;-58
2023/02/12 05:51:22;;;;;;;68.28;31.30;;;;;;;;;;4986343;28;20566;-58
2023/02/12 05:53:48;;;;;;;72.50;32.17;;;;;;;;;;4985652;28;20042;-59
2023/02/12 05:56:18;;;;;;;60.72;30.13;;;;;;;;;;4983217;28;20026;-58
2023/02/12 05:58:44;;;;;;;63.70;29.30;;;;;;;;;;4986471;28;20552;-59
2023/02/12 06:01:13;;;;;;;64.65;31.23;;;;;;;;;;4983429;28;20506;-59
2023/02/12 06:03:38;;;;;;;60.90;28.85;;;;;;;;;;4983095;28;20139;-59
2023/02/12 06:06:04;;;;;;;63.42;30.17;;;;;;;;;;4984422;28;20481;-60
2023/02/12 06:08:29;;;;;;;67.30;30.80;;;;;;;;;;4983031;28;20467;-59
2023/02/12 06:10:57;;;;;;;53.50;27.10;;;;;;;;;;4980274;28;20041;-59
2023/02/12 06:13:23;;;;;;;67.93;29.65;;;;;;;;;;5001879;28;20042;-60
2023/02/12 06:15:49;;;;;;;63.33;30.27;;;;;;;;;;4978308;28;20471;-59
2023/02/12 06:18:14;;;;;;;59.67;28.83;;;;;;;;;;4984493;28;20053;-59
2023/02/12 06:20:39;;;;;;;62.28;29.60;;;;;;;;;;4986359;28;20033;-59
2023/02/12 06:23:05;;;;;;;61.97;30.08;;;;;;;;;;4977916;28;20042;-59
2023/02/12 06:25:30;;;;;;;66.68;32.10;;;;;;;;;;4984776;28;20109;-59
2023/02/12 06:27:55;;;;;;;58.13;29.50;;;;;;;;;;4982503;28;20432;-59
2023/02/12 06:30:21;;;;;;;61.28;28.65;;;;;;;;;;4984980;28;20054;-59
2023/02/12 06:32:48;;;;;;;63.60;30.02;;;;;;;;;;4983572;28;20038;-59
2023/02/12 06:35:13;;;;;;;81.35;33.35;;;;;;;;;;4986014;28;20483;-59
2023/02/12 06:37:39;;;;;;;69.82;32.05;;;;;;;;;;4981520;28;20037;-59
2023/02/12 06:40:04;;;;;;;64.93;29.65;;;;;;;;;;4984502;28;20430;-59
2023/02/12 06:42:30;;;;;;;56.70;26.95;;;;;;;;;;4986656;28;20034;-59
2023/02/12 06:44:55;;;;;;;63.50;31.08;;;;;;;;;;4987482;28;20030;-58
2023/02/12 06:47:20;;;;;;;63.05;29.50;;;;;;;;;;4984944;28;20026;-59
2023/02/12 06:49:45;;;;;;;68.65;31.08;;;;;;;;;;5000478;28;20043;-60
2023/02/12 06:52:12;;;;;;;64.38;28.95;;;;;;;;;;4984034;28;20080;-59
2023/02/12 06:54:38;;;;;;;65.32;30.23;;;;;;;;;;4983675;28;20033;-59
2023/02/12 06:57:03;;;;;;;71.00;31.83;;;;;;;;;;4984706;28;20026;-59
2023/02/12 06:59:28;;;;;;;77.57;34.47;;;;;;;;;;4981502;28;20438;-60
2023/02/12 07:01:54;;;;;;;78.50;34.63;;;;;;;;;;4984965;28;20026;-59
2023/02/12 07:04:19;;;;;;;83.80;39.25;;;;;;;;;;4983311;28;20046;-59
2023/02/12 07:06:44;;;;;;;90.38;38.33;;;;;;;;;;4986652;28;20032;-59
2023/02/12 07:09:09;;;;;;;75.68;36.00;;;;;;;;;;4985751;28;20031;-59
2023/02/12 07:11:35;;;;;;;79.72;36.05;;;;;;;;;;4981988;28;20066;-60
2023/02/12 07:14:00;;;;;;;67.97;33.78;;;;;;;;;;4983396;28;20610;-61
2023/02/12 07:16:26;;;;;;;71.38;35.72;;;;;;;;;;4982057;28;20295;-61
2023/02/12 07:18:51;;;;;;;77.22;34.33;;;;;;;;;;4983534;28;20034;-60
2023/02/12 07:21:17;;;;;;;72.82;36.10;;;;;;;;;;4981357;28;20033;-61
2023/02/12 07:23:49;;;;;;;81.70;34.92;;;;;;;;;;4984675;28;20447;-59
2023/02/12 07:26:14;;;;;;;70.53;35.08;;;;;;;;;;4985484;28;20030;-59
2023/02/12 07:28:40;;;;;;;75.35;33.72;;;;;;;;;;4984810;28;20027;-59
2023/02/12 07:31:10;;;;;;;78.68;36.72;;;;;;;;;;4983878;28;20035;-59
2023/02/12 07:33:35;;;;;;;77.63;36.75;;;;;;;;;;4985409;28;20045;-59
2023/02/12 07:36:01;;;;;;;79.32;36.60;;;;;;;;;;4976778;28;20027;-59
2023/02/12 07:38:27;;;;;;;74.22;33.92;;;;;;;;;;4986091;28;20041;-59
2023/02/12 07:40:52;;;;;;;82.90;37.72;;;;;;;;;;4982229;28;20022;-59
2023/02/12 07:43:18;;;;;;;75.68;35.50;;;;;;;;;;4983080;28;20101;-59
2023/02/12 07:45:43;;;;;;;67.45;34.63;;;;;;;;;;4988048;28;20042;-60
2023/02/12 07:48:08;;;;;;;78.82;36.30;;;;;;;;;;4988123;28;20509;-59
2023/02/12 07:50:34;;;;;;;73.57;35.65;;;;;;;;;;4988766;28;20386;-60
2023/02/12 07:52:59;;;;;;;73.65;34.63;;;;;;;;;;4983943;28;20042;-60
2023/02/12 07:55:25;;;;;;;80.90;38.10;;;;;;;;;;4985192;28;20388;-59
2023/02/12 07:57:50;;;;;;;119.25;47.33;;;;;;;;;;4987404;28;20065;-60
2023/02/12 08:00:15;;;;;;;99.38;44.25;;;;;;;;;;4986172;28;20042;-60
2023/02/12 08:02:41;;;;;;;90.03;40.83;;;;;;;;;;4983741;28;20418;-60
2023/02/12 08:05:06;;;;;;;91.70;39.88;;;;;;;;;;4988652;28;20031;-60
2023/02/12 08:07:32;;;;;;;80.50;37.88;;;;;;;;;;4979825;28;20214;-59
2023/02/12 08:09:57;;;;;;;69.90;33.95;;;;;;;;;;4988488;28;20081;-59
2023/02/12 08:12:22;;;;;;;78.65;35.80;;;;;;;;;;4989106;28;20068;-59
2023/02/12 08:14:48;;;;;;;76.05;37.03;;;;;;;;;;4987353;28;20468;-58
2023/02/12 08:17:14;;;;;;;78.22;36.35;;;;;;;;;;4987902;28;20069;-59
2023/02/12 08:19:39;;;;;;;81.85;36.00;;;;;;;;;;4987367;28;20448;-60
2023/02/12 08:22:05;;;;;;;81.72;36.53;;;;;;;;;;4988709;28;20036;-59
2023/02/12 08:24:31;;;;;;;78.80;36.47;;;;;;;;;;4986973;28;20535;-60
2023/02/12 08:26:56;;;;;;;71.82;35.50;;;;;;;;;;4969692;28;20037;-59
2023/02/12 08:29:23;;;;;;;72.50;36.40;;;;;;;;;;4985550;28;20069;-60
2023/02/12 08:31:49;;;;;;;71.45;36.60;;;;;;;;;;4986329;28;20032;-61
2023/02/12 08:34:16;;;;;;;74.13;35.05;;;;;;;;;;4986257;28;20034;-59
2023/02/12 08:36:43;;;;;;;72.70;34.03;;;;;;;;;;4987787;28;20038;-60
2023/02/12 08:39:09;;;;;;;90.20;39.80;;;;;;;;;;4989989;28;20036;-60
2023/02/12 08:41:35;;;;;;;92.47;39.90;;;;;;;;;;4984473;28;21362;-59
2023/02/12 08:44:01;;;;;;;85.35;36.28;;;;;;;;;;4988232;28;20034;-57
2023/02/12 08:46:27;;;;;;;93.75;36.80;;;;;;;;;;4985409;28;20451;-58
2023/02/12 08:48:53;;;;;;;93.82;39.50;;;;;;;;;;4986304;28;20038;-58
2023/02/12 08:51:21;;;;;;;82.63;36.50;;;;;;;;;;4985732;28;20026;-59
2023/02/12 08:53:47;;;;;;;184.35;61.72;;;;;;;;;;4983887;28;20410;-58
2023/02/12 08:56:14;;;;;;;133.38;47.55;;;;;;;;;;4986945;28;20031;-58
2023/02/12 08:58:40;;;;;;;185.05;54.83;;;;;;;;;;4986990;28;20034;-60
2023/02/12 09:01:10;;;;;;;307.90;77.65;;;;;;;;;;4987780;28;20080;-58
2023/02/12 09:03:35;;;;;;;204.52;57.92;;;;;;;;;;4986335;28;20042;-59
2023/02/12 09:06:01;;;;;;;107.80;41.70;;;;;;;;;;4987388;28;21938;-58
2023/02/12 09:08:26;;;;;;;85.57;36.95;;;;;;;;;;4981481;28;20501;-58
2023/02/12 09:10:52;;;;;;;86.60;37.55;;;;;;;;;;4984278;28;20031;-58
2023/02/12 09:13:17;;;;;;;90.88;36.38;;;;;;;;;;4987000;28;20034;-59
2023/02/12 09:15:44;;;;;;;90.55;38.90;;;;;;;;;;4985053;28;20034;-57
2023/02/12 09:18:09;;;;;;;90.00;36.45;;;;;;;;;;4987913;28;20027;-58
2023/02/12 09:20:39;;;;;;;97.22;41.72;;;;;;;;;;4983638;28;20507;-59
2023/02/12 09:23:04;;;;;;;94.75;39.17;;;;;;;;;;4982109;28;20035;-58
2023/02/12 09:25:30;;;;;;;86.65;35.13;;;;;;;;;;4984176;28;20560;-59
2023/02/12 09:27:55;;;;;;;95.43;39.67;;;;;;;;;;4987369;28;20035;-59
2023/02/12 09:30:21;;;;;;;84.60;39.03;;;;;;;;;;4984234;28;20034;-59
2023/02/12 09:32:46;;;;;;;87.60;37.15;;;;;;;;;;4978069;28;20069;-59
2023/02/12 09:35:11;;;;;;;99.18;38.47;;;;;;;;;;4984212;28;20034;-59
2023/02/12 09:37:38;;;;;;;80.60;35.03;;;;;;;;;;4984409;28;20348;-59
2023/02/12 09:40:03;;;;;;;65.07;29.55;;;;;;;;;;4986609;28;20034;-59
2023/02/12 09:42:32;;;;;;;61.40;29.00;;;;;;;;;;4981157;28;20045;-59
2023/02/12 09:45:04;;;;;;;58.17;28.48;;;;;;;;;;4983874;28;20061;-60
2023/02/12 09:47:40;;;;;;;61.72;27.77;;;;;;;;;;4983001;28;20565;-60
2023/02/12 09:50:28;;;;;;;58.58;27.20;;;;;;;;;;4984395;28;20034;-60
2023/02/12 09:52:56;;;;;;;67.00;28.10;;;;;;;;;;4984548;28;20069;-59
2023/02/12 09:55:24;;;;;;;61.28;27.10;;;;;;;;;;4984253;28;20440;-60
2023/02/12 09:57:49;;;;;;;57.55;25.92;;;;;;;;;;4982977;28;20034;-59
2023/02/12 10:00:17;;;;;;;56.05;25.17;;;;;;;;;;4986257;28;20034;-59
2023/02/12 10:02:42;;;;;;;59.17;25.25;;;;;;;;;;4983002;28;20034;-59
2023/02/12 10:05:16;;;;;;;48.53;23.77;;;;;;;;;;4983301;28;20478;-59
2023/02/12 10:07:52;;;;;;;48.70;22.65;;;;;;;;;;4984901;28;20026;-59
2023/02/12 10:10:17;;;;;;;44.25;20.83;;;;;;;;;;4983971;28;20653;-59
2023/02/12 10:12:54;;;;;;;42.20;20.30;;;;;;;;;;4995144;28;20050;-59
2023/02/12 10:15:38;;;;;;;53.03;24.25;;;;;;;;;;4983478;28;20066;-60
2023/02/12 10:18:22;;;;;;;42.97;20.05;;;;;;;;;;4980854;28;20030;-60
2023/02/12 10:20:51;;;;;;;38.90;17.67;;;;;;;;;;4984820;28;20040;-60
2023/02/12 10:23:35;;;;;;;38.67;18.88;;;;;;;;;;4983664;28;20386;-60
2023/02/12 10:26:10;;;;;;;31.90;15.23;;;;;;;;;;4980454;28;20665;-59
2023/02/12 10:28:38;;;;;;;17.98;8.55;;;;;;;;;;4969937;28;20036;-60
2023/02/12 10:31:11;;;;;;;17.15;8.43;;;;;;;;;;4973793;28;20109;-59
2023/02/12 10:33:44;;;;;;;21.30;9.45;;;;;;;;;;4952869;28;20179;-60
2023/02/12 10:36:15;;;;;;;25.48;12.75;;;;;;;;;;4953506;28;20431;-60
2023/02/12 10:38:44;;;;;;;16.25;8.10;;;;;;;;;;4969901;28;20022;-59
2023/02/12 10:41:11;;;;;;;19.67;8.65;;;;;;;;;;4950571;28;20023;-58
2023/02/12 10:43:37;;;;;;;;;;;;;;;;;;4949398;28;20070;-58
2023/02/12 10:46:02;;;;;;;17.58;8.93;;;;;;;;;;4955209;28;19949;-58
2023/02/12 10:48:32;;;;;;;18.05;8.05;;;;;;;;;;4948705;28;20106;-59
2023/02/12 10:50:57;;;;;;;17.15;7.68;;;;;;;;;;4955101;28;20304;-58
2023/02/12 10:53:24;;;;;;;21.08;8.77;;;;;;;;;;4952256;28;20043;-60
2023/02/12 10:56:05;;;;;;;16.60;8.68;;;;;;;;;;4948955;28;20105;-58
2023/02/12 10:58:30;;;;;;;21.30;10.55;;;;;;;;;;4955934;28;20039;-59
2023/02/12 11:00:57;;;;;;;17.50;9.68;;;;;;;;;;4949621;28;20061;-60
2023/02/12 11:03:27;;;;;;;17.23;9.10;;;;;;;;;;4954630;28;20045;-58
2023/02/12 11:05:52;;;;;;;16.58;8.48;;;;;;;;;;4952873;28;21084;-59
2023/02/12 11:08:44;;;;;;;19.20;9.48;;;;;;;;;;4949862;28;20043;-58
2023/02/12 11:11:21;;;;;;;19.95;9.75;;;;;;;;;;4954190;28;20065;-58
2023/02/12 11:13:53;;;;;;;23.90;10.60;;;;;;;;;;4949425;28;20073;-60
2023/02/12 11:16:32;;;;;;;19.73;10.23;;;;;;;;;;4951583;28;20023;-58
2023/02/12 11:18:59;;;;;;;17.23;8.43;;;;;;;;;;4957202;28;20110;-58
2023/02/12 11:21:24;;;;;;;17.33;8.38;;;;;;;;;;4952517;28;20077;-59
2023/02/12 11:23:50;;;;;;;12.35;7.00;;;;;;;;;;4951044;28;20469;-58
2023/02/12 11:26:18;;;;;;;13.05;7.70;;;;;;;;;;4957771;28;20042;-58
2023/02/12 11:28:56;;;;;;;15.52;7.75;;;;;;;;;;4950559;28;20043;-58
2023/02/12 11:31:22;;;;;;;13.55;5.95;;;;;;;;;;4954006;28;20035;-61
2023/02/12 11:34:03;;;;;;;9.05;4.70;;;;;;;;;;4953340;28;20031;-58
2023/02/12 11:36:31;;;;;;;8.18;4.72;;;;;;;;;;4951026;28;20033;-59
2023/02/12 11:38:57;;;;;;;10.23;5.18;;;;;;;;;;4936946;28;20158;-58
2023/02/12 11:41:23;;;;;;;9.35;5.00;;;;;;;;;;4947020;28;20110;-59
2023/02/12 11:43:50;;;;;;;9.48;4.68;;;;;;;;;;4953506;28;20496;-60
2023/02/12 11:46:23;;;;;;;9.80;5.10;;;;;;;;;;4974129;28;20062;-58
2023/02/12 11:48:50;;;;;;;9.55;4.60;;;;;;;;;;4951066;28;20109;-59
2023/02/12 11:51:20;;;;;;;6.13;3.75;;;;;;;;;;4955893;28;20038;-59
2023/02/12 11:53:47;;;;;;;8.88;4.25;;;;;;;;;;4952926;28;20118;-59
2023/02/12 11:56:13;;;;;;;8.38;4.03;;;;;;;;;;4952401;28;20042;-58
2023/02/12 11:58:40;;;;;;;8.82;3.97;;;;;;;;;;4957810;28;20494;-59
2023/02/12 12:01:11;;;;;;;8.70;3.88;;;;;;;;;;4949206;28;20023;-59
2023/02/12 12:03:45;;;;;;;7.03;4.30;;;;;;;;;;4954619;28;20498;-59
2023/02/12 12:06:17;;;;;;;9.68;5.07;;;;;;;;;;4950899;28;20115;-58
2023/02/12 12:08:52;;;;;;;9.27;4.82;;;;;;;;;;4957125;28;20093;-59
2023/02/12 12:11:18;;;;;;;11.35;5.13;;;;;;;;;;4957356;28;20043;-58
2023/02/12 12:13:52;;;;;;;10.40;5.95;;;;;;;;;;4929652;28;20558;-58
2023/02/12 12:22:07;;;;;;;14.13;7.18;;;;;;;;;;4957443;28;20033;-58
2023/02/12 12:24:42;;;;;;;12.00;6.88;;;;;;;;;;4954205;28;20121;-59
2023/02/12 12:30:06;;;;;;;13.60;7.25;;;;;;;;;;4951670;28;20031;-58
2023/02/12 12:32:33;;;;;;;12.45;6.55;;;;;;;;;;4953326;28;20026;-58
2023/02/12 12:34:58;;;;;;;13.45;7.85;;;;;;;;;;4964558;28;20085;-58
2023/02/12 12:37:24;;;;;;;16.08;8.05;;;;;;;;;;4958852;28;20387;-58
2023/02/12 12:40:02;;;;;;;16.42;7.65;;;;;;;;;;4964037;28;20047;-58
2023/02/12 12:42:46;;;;;;;15.55;7.78;;;;;;;;;;4964169;28;20031;-59
2023/02/12 12:45:27;;;;;;;18.70;8.10;;;;;;;;;;4961050;28;20027;-59
2023/02/12 12:48:05;;;;;;;13.60;6.97;;;;;;;;;;4968416;28;20023;-59
2023/02/12 12:50:42;;;;;;;14.82;8.25;;;;;;;;;;4960038;28;20031;-59
2023/02/12 12:53:08;;;;;;;;;;;;;;;;;;4961436;28;20047;-59
2023/02/12 12:55:49;;;;;;;14.23;6.80;;;;;;;;;;4966588;28;19918;-59
2023/02/12 12:58:23;;;;;;;14.75;7.45;;;;;;;;;;4961244;28;20030;-58
2023/02/12 13:00:48;;;;;;;14.60;7.70;;;;;;;;;;4960569;28;20029;-58
2023/02/12 13:03:30;;;;;;;18.05;8.40;;;;;;;;;;4966056;28;20542;-59
2023/02/12 13:06:00;;;;;;;13.73;7.00;;;;;;;;;;4960456;28;20407;-59
2023/02/12 13:08:25;;;;;;;15.52;7.57;;;;;;;;;;4965061;28;20045;-59
2023/02/12 13:11:00;;;;;;;13.30;7.43;;;;;;;;;;4960244;28;20022;-59
2023/02/12 13:13:41;;;;;;;13.18;7.38;;;;;;;;;;4960643;28;20046;-59
2023/02/12 13:16:09;;;;;;;14.13;6.18;;;;;;;;;;4966584;28;20039;-59
2023/02/12 13:18:40;;;;;;;12.65;6.95;;;;;;;;;;4960785;28;20031;-59
2023/02/12 13:21:29;;;;;;;12.50;6.88;;;;;;;;;;4956581;28;20069;-59
2023/02/12 13:23:58;;;;;;;14.90;7.35;;;;;;;;;;4967963;28;20086;-59
2023/02/12 13:26:32;;;;;;;12.60;7.00;;;;;;;;;;4959929;28;20097;-59
2023/02/12 13:29:04;;;;;;;12.05;6.80;;;;;;;;;;4960178;28;20161;-60
2023/02/12 13:31:32;;;;;;;11.63;6.82;;;;;;;;;;4966501;28;20139;-59
2023/02/12 13:33:59;;;;;;;12.93;6.80;;;;;;;;;;4958982;28;20026;-59
2023/02/12 13:36:24;;;;;;;;;;;;;;;;;;4963802;28;20105;-60
2023/02/12 13:39:00;;;;;;;9.30;5.77;;;;;;;;;;4954019;28;19918;-57
2023/02/12 13:41:26;;;;;;;9.82;5.95;;;;;;;;;;4956989;28;20025;-58
2023/02/12 13:44:04;;;;;;;9.90;6.40;;;;;;;;;;4968192;28;20039;-58
2023/02/12 13:46:29;;;;;;;11.32;7.07;;;;;;;;;;4961499;28;20543;-58
2023/02/12 13:48:59;;;;;;;11.33;6.73;;;;;;;;;;4960538;28;20869;-58
2023/02/12 13:51:27;;;;;;;10.00;6.57;;;;;;;;;;4962677;28;20689;-59
2023/02/12 13:54:11;;;;;;;12.43;7.50;;;;;;;;;;4957407;28;20022;-59
2023/02/12 13:56:36;;;;;;;13.45;7.03;;;;;;;;;;4979883;28;20149;-60
2023/02/12 13:59:02;;;;;;;13.63;7.70;;;;;;;;;;4960917;28;20119;-59
2023/02/12 14:01:34;;;;;;;11.83;7.40;;;;;;;;;;4961012;28;20037;-59
2023/02/12 14:04:13;;;;;;;12.80;7.47;;;;;;;;;;4964939;28;20055;-59
2023/02/12 14:06:50;;;;;;;9.82;6.47;;;;;;;;;;4959396;28;20551;-59
2023/02/12 14:09:19;;;;;;;9.48;6.03;;;;;;;;;;4956604;28;20062;-59
2023/02/12 14:11:48;;;;;;;9.68;6.10;;;;;;;;;;4965132;28;20468;-59
2023/02/12 14:14:23;;;;;;;9.35;5.95;;;;;;;;;;4959671;28;20226;-60
2023/02/12 14:16:48;;;;;;;8.32;5.40;;;;;;;;;;4960770;28;20035;-59
2023/02/12 14:19:32;;;;;;;8.53;5.20;;;;;;;;;;4959846;28;20042;-59
2023/02/12 14:22:01;;;;;;;8.40;5.18;;;;;;;;;;4960306;28;20051;-59
2023/02/12 14:24:35;;;;;;;15.38;6.95;;;;;;;;;;4961516;28;20118;-59
2023/02/12 14:27:03;;;;;;;10.77;5.40;;;;;;;;;;4957905;28;20298;-58
2023/02/12 14:29:28;;;;;;;8.10;5.18;;;;;;;;;;4957558;28;20424;-59
2023/02/12 14:31:55;;;;;;;8.57;4.83;;;;;;;;;;4965459;28;20491;-59
2023/02/12 14:34:20;;;;;;;7.82;4.43;;;;;;;;;;4957926;28;21019;-61
2023/02/12 14:36:47;;;;;;;7.70;4.70;;;;;;;;;;4960428;28;20142;-58
2023/02/12 14:39:19;;;;;;;9.35;4.95;;;;;;;;;;4957774;28;20130;-58
2023/02/12 14:41:48;;;;;;;12.65;7.38;;;;;;;;;;4958401;28;20025;-60